Time;durP1;ratioP1;P1;durP2;ratioP2;P2;SDS_P1;SDS_P2;PMS_P1;PMS_P2;Temp;Humidity;BMP_temperature;BMP_pressure;BME280_temperature;BME280_humidity;BME280_pressure;Samples;Min_cycle;Max_cycle;Signal;HPM_P1;HPM_P2
2023/09/17 00:02:14;;;;;;;7.10;6.60;;;;;;;19.42;100.00;100020.44;4979321;28;20198;-78
2023/09/17 00:04:40;;;;;;;6.30;5.90;;;;;;;19.39;100.00;100016.22;4963327;28;20345;-77
2023/09/17 00:07:05;;;;;;;6.83;6.23;;;;;;;19.37;100.00;100018.06;4970127;28;20269;-77
2023/09/17 00:09:30;;;;;;;6.77;6.23;;;;;;;19.33;100.00;100022.63;4970506;28;20190;-76
2023/09/17 00:11:56;;;;;;;7.67;7.17;;;;;;;19.31;100.00;100023.59;4966688;28;20197;-76
2023/09/17 00:14:22;;;;;;;6.87;6.40;;;;;;;19.28;100.00;100019.38;4968246;28;20212;-75
2023/09/17 00:16:47;;;;;;;7.27;6.73;;;;;;;19.24;100.00;100016.97;4969432;28;20240;-77
2023/09/17 00:19:13;;;;;;;6.93;6.43;;;;;;;19.22;100.00;100021.44;4965701;28;20296;-76
2023/09/17 00:21:38;;;;;;;6.77;6.37;;;;;;;19.18;100.00;100024.22;4965945;28;20579;-76
2023/09/17 00:24:04;;;;;;;7.17;6.67;;;;;;;19.15;100.00;100015.66;4962528;28;20202;-76
2023/09/17 00:26:29;;;;;;;7.83;7.13;;;;;;;19.11;100.00;100021.97;4963557;28;20202;-75
2023/09/17 00:28:54;;;;;;;7.53;7.03;;;;;;;19.08;100.00;100016.88;4973729;28;20176;-76
2023/09/17 00:31:20;;;;;;;8.03;7.43;;;;;;;19.06;100.00;100016.13;4961297;28;20214;-76
2023/09/17 00:33:45;;;;;;;7.10;6.53;;;;;;;19.03;100.00;100012.72;4953003;28;20244;-76
2023/09/17 00:36:10;;;;;;;7.43;6.93;;;;;;;19.00;100.00;100006.75;4965796;28;20186;-76
2023/09/17 00:38:36;;;;;;;7.40;6.80;;;;;;;18.96;100.00;100008.69;4967192;28;20320;-76
2023/09/17 00:41:01;;;;;;;7.50;7.00;;;;;;;18.93;100.00;100010.56;4961985;28;20619;-76
2023/09/17 00:43:26;;;;;;;7.50;6.80;;;;;;;18.91;100.00;100015.03;4964811;28;20517;-76
2023/09/17 00:45:52;;;;;;;7.20;6.70;;;;;;;18.86;100.00;100012.66;4966930;28;20763;-76
2023/09/17 00:48:17;;;;;;;7.13;6.53;;;;;;;18.82;100.00;100005.84;4964487;28;20185;-76
2023/09/17 00:50:44;;;;;;;7.43;6.83;;;;;;;18.78;100.00;100005.16;4965844;28;20185;-76
2023/09/17 00:53:09;;;;;;;6.70;6.20;;;;;;;18.74;100.00;100011.44;4968506;28;20182;-76
2023/09/17 00:55:36;;;;;;;6.50;6.00;;;;;;;18.72;100.00;100001.06;4961725;28;20843;-76
2023/09/17 00:58:02;;;;;;;7.03;6.53;;;;;;;18.71;100.00;100007.22;4956698;28;20225;-76
2023/09/17 01:00:28;;;;;;;6.70;6.20;;;;;;;18.71;100.00;99999.34;4963956;28;20536;-78
2023/09/17 01:02:54;;;;;;;7.10;6.60;;;;;;;18.71;100.00;100004.59;4955749;28;20236;-76
2023/09/17 01:05:20;;;;;;;7.07;6.37;;;;;;;18.73;100.00;100008.00;4961372;28;20220;-76
2023/09/17 01:07:46;;;;;;;7.37;6.87;;;;;;;18.76;100.00;100003.50;4966828;28;20192;-76
2023/09/17 01:10:11;;;;;;;7.90;7.40;;;;;;;18.77;100.00;99997.34;4965339;28;20212;-75
2023/09/17 01:12:38;;;;;;;7.77;7.27;;;;;;;18.80;100.00;100002.44;4963583;28;20252;-76
2023/09/17 01:15:06;;;;;;;8.73;8.03;;;;;;;18.81;100.00;100005.00;4959990;28;20256;-76
2023/09/17 01:17:32;;;;;;;8.27;7.43;;;;;;;18.80;100.00;99995.44;4972758;28;20204;-76
2023/09/17 01:19:57;;;;;;;8.13;7.53;;;;;;;18.82;100.00;100001.47;4966461;28;20595;-76
2023/09/17 01:22:38;;;;;;;7.30;6.77;;;;;;;18.83;100.00;99995.28;4963549;28;20201;-77
2023/09/17 01:25:18;;;;;;;7.17;6.67;;;;;;;18.83;100.00;99995.28;4960676;28;20221;-76
2023/09/17 01:27:44;;;;;;;7.80;7.27;;;;;;;18.85;100.00;99987.34;4959628;28;20190;-77
2023/09/17 01:30:15;;;;;;;7.33;6.77;;;;;;;18.87;100.00;99991.59;4958080;28;20608;-77
2023/09/17 01:32:42;;;;;;;7.27;6.67;;;;;;;18.91;100.00;99986.19;4956268;28;20730;-77
2023/09/17 01:35:09;;;;;;;8.00;7.40;;;;;;;18.92;100.00;99986.13;4954329;28;20211;-76
2023/09/17 01:37:41;;;;;;;7.73;7.13;;;;;;;18.94;100.00;99999.16;4955706;28;20188;-77
2023/09/17 01:40:12;;;;;;;7.97;7.37;;;;;;;18.96;100.00;99994.72;4953413;28;20201;-77
2023/09/17 01:42:40;;;;;;;8.00;7.40;;;;;;;18.97;100.00;99996.44;4957963;28;20190;-77
2023/09/17 01:45:09;;;;;;;8.00;7.30;;;;;;;18.96;100.00;100006.06;4962197;28;20220;-77
2023/09/17 01:47:35;;;;;;;7.00;6.50;;;;;;;18.96;100.00;100007.84;4955057;28;20217;-77
2023/09/17 01:50:04;;;;;;;8.00;7.40;;;;;;;18.95;100.00;100000.91;4953756;28;20186;-77
2023/09/17 01:52:32;;;;;;;7.83;7.23;;;;;;;18.94;100.00;100010.53;4952538;28;20239;-76
2023/09/17 01:54:58;;;;;;;6.87;6.37;;;;;;;18.89;100.00;100008.09;4961956;28;20213;-77
2023/09/17 01:57:23;;;;;;;7.37;6.77;;;;;;;18.86;100.00;100008.25;4957432;28;20205;-77
2023/09/17 01:59:49;;;;;;;12.60;7.63;;;;;;;18.83;100.00;100005.75;4952910;28;20222;-77
2023/09/17 02:02:14;;;;;;;15.50;7.17;;;;;;;18.80;100.00;100005.06;4959344;28;20224;-76
2023/09/17 02:04:40;;;;;;;7.40;6.50;;;;;;;18.80;100.00;100007.69;4959881;28;20210;-77
2023/09/17 02:07:05;;;;;;;6.60;6.03;;;;;;;18.79;100.00;100008.59;4961850;28;20185;-76
2023/09/17 02:09:30;;;;;;;7.17;6.67;;;;;;;18.76;100.00;100022.72;4963259;28;20189;-77
2023/09/17 02:11:55;;;;;;;6.60;6.03;;;;;;;18.74;100.00;100025.44;4958079;28;20193;-76
2023/09/17 02:14:21;;;;;;;6.77;6.27;;;;;;;18.72;100.00;100031.63;4978966;28;20273;-75
2023/09/17 02:16:46;;;;;;;6.23;5.73;;;;;;;18.70;100.00;100030.84;4969842;28;20324;-75
2023/09/17 02:19:11;;;;;;;6.00;5.60;;;;;;;18.67;100.00;100037.09;4964217;28;20569;-76
2023/09/17 02:21:37;;;;;;;6.53;6.13;;;;;;;18.65;100.00;100036.31;4962160;28;20201;-77
2023/09/17 02:24:03;;;;;;;6.43;6.03;;;;;;;18.62;100.00;100036.47;4959567;28;20297;-76
2023/09/17 02:26:28;;;;;;;6.30;5.80;;;;;;;18.62;100.00;100048.72;4964639;28;20185;-76
2023/09/17 02:28:54;;;;;;;6.97;6.47;;;;;;;18.59;100.00;100053.19;4967408;28;20185;-76
2023/09/17 02:31:19;;;;;;;6.67;6.27;;;;;;;18.54;100.00;100047.28;4968774;28;20189;-75
2023/09/17 02:33:45;;;;;;;7.33;6.83;;;;;;;18.50;100.00;100053.63;4964245;28;20190;-76
2023/09/17 02:36:11;;;;;;;6.57;6.10;;;;;;;18.47;100.00;100058.13;4967476;28;20688;-77
2023/09/17 02:38:37;;;;;;;6.90;6.40;;;;;;;18.46;100.00;100066.91;4968803;28;20232;-76
2023/09/17 02:41:03;;;;;;;6.70;6.20;;;;;;;18.42;100.00;100060.97;4966426;28;20207;-76
2023/09/17 02:43:29;;;;;;;6.30;5.70;;;;;;;18.39;100.00;100056.72;4973821;28;20213;-75
2023/09/17 02:45:55;;;;;;;6.23;5.73;;;;;;;18.38;100.00;100062.00;4970843;28;20245;-76
2023/09/17 02:48:21;;;;;;;6.93;6.40;;;;;;;18.34;100.00;100060.47;4970795;28;20182;-77
2023/09/17 02:50:46;;;;;;;11.57;5.90;;;;;;;18.32;100.00;100057.91;4962877;28;20672;-75
2023/09/17 02:53:12;;;;;;;5.90;5.40;;;;;;;18.31;100.00;100053.59;4965843;28;20195;-75
2023/09/17 02:55:37;;;;;;;6.17;5.70;;;;;;;18.31;100.00;100044.88;4961129;28;20244;-76
2023/09/17 02:58:03;;;;;;;5.80;5.40;;;;;;;18.31;100.00;100048.34;4966144;28;20235;-76
2023/09/17 03:00:34;;;;;;;6.40;5.90;;;;;;;18.33;100.00;100053.53;4967835;28;20214;-76
2023/09/17 03:03:00;;;;;;;6.30;5.83;;;;;;;18.33;100.00;100053.53;4961164;28;20755;-76
2023/09/17 03:05:25;;;;;;;6.43;5.93;;;;;;;18.34;100.00;100053.44;4968810;28;20264;-76
2023/09/17 03:07:51;;;;;;;5.67;5.27;;;;;;;18.33;100.00;100045.66;4966812;28;20246;-75
2023/09/17 03:10:18;;;;;;;7.80;7.20;;;;;;;18.34;100.00;100039.50;4968100;28;20195;-77
2023/09/17 03:12:46;;;;;;;7.30;6.80;;;;;;;18.32;100.00;100042.19;4963812;28;20182;-76
2023/09/17 03:15:12;;;;;;;7.07;6.50;;;;;;;18.29;100.00;100042.34;4971067;28;20207;-76
2023/09/17 03:17:37;;;;;;;6.53;6.07;;;;;;;18.26;100.00;100048.56;4969133;28;20206;-75
2023/09/17 03:20:13;;;;;;;6.97;6.47;;;;;;;18.24;100.00;100041.69;4973418;28;20662;-76
2023/09/17 03:22:41;;;;;;;6.70;6.20;;;;;;;18.22;100.00;100031.31;4965083;28;20193;-76
2023/09/17 03:25:07;;;;;;;6.90;6.40;;;;;;;18.19;100.00;100027.94;4955444;28;20313;-76
2023/09/17 03:27:33;;;;;;;6.73;6.23;;;;;;;18.17;100.00;100027.16;4964263;28;20271;-77
2023/09/17 03:29:59;;;;;;;7.37;6.77;;;;;;;18.14;100.00;100020.31;4954685;28;20728;-76
2023/09/17 03:32:25;;;;;;;6.80;6.30;;;;;;;18.11;100.00;100030.91;4967681;28;20191;-77
2023/09/17 03:34:50;;;;;;;6.83;6.33;;;;;;;18.09;100.00;100024.88;4966856;28;20891;-77
2023/09/17 03:37:15;;;;;;;7.10;6.60;;;;;;;18.05;100.00;100021.56;4967998;28;20198;-76
2023/09/17 03:39:42;;;;;;;7.10;6.60;;;;;;;18.05;100.00;100023.34;4964815;28;20260;-75
2023/09/17 03:42:07;;;;;;;7.13;6.57;;;;;;;18.06;100.00;100025.88;4964109;28;20193;-76
2023/09/17 03:44:33;;;;;;;7.30;6.63;;;;;;;18.07;100.00;100024.13;4967239;28;20237;-77
2023/09/17 03:46:58;;;;;;;7.53;6.83;;;;;;;18.06;100.00;100020.66;4963887;28;20181;-76
2023/09/17 03:49:26;;;;;;;6.90;6.40;;;;;;;18.08;100.00;100017.94;4978116;28;20193;-76
2023/09/17 03:51:51;;;;;;;6.67;6.20;;;;;;;18.07;100.00;100013.66;4981772;28;20196;-76
2023/09/17 03:54:17;;;;;;;7.33;6.83;;;;;;;18.06;100.00;100023.25;4964431;28;20212;-76
2023/09/17 03:56:43;;;;;;;7.53;7.03;;;;;;;18.04;100.00;100019.84;4972092;28;20196;-75
2023/09/17 03:59:09;;;;;;;7.20;6.70;;;;;;;18.02;100.00;100018.22;4963056;28;20291;-76
2023/09/17 04:01:34;;;;;;;6.83;6.23;;;;;;;18.00;100.00;100018.28;4965765;28;20282;-76
2023/09/17 04:04:00;;;;;;;6.90;6.40;;;;;;;17.96;100.00;100021.94;4959324;28;20220;-76
2023/09/17 04:06:28;;;;;;;6.40;6.00;;;;;;;17.91;100.00;100022.16;4966086;28;20201;-76
2023/09/17 04:08:53;;;;;;;6.87;6.37;;;;;;;17.87;100.00;100027.56;4968227;28;20252;-76
2023/09/17 04:11:19;;;;;;;6.73;6.23;;;;;;;17.84;100.00;100033.78;4965193;28;20196;-76
2023/09/17 04:13:44;;;;;;;6.53;6.03;;;;;;;17.80;100.00;100037.44;4970261;28;20654;-76
2023/09/17 04:16:10;;;;;;;6.13;5.63;;;;;;;17.77;100.00;100027.97;4964694;28;20202;-76
2023/09/17 04:18:36;;;;;;;6.47;6.07;;;;;;;17.75;100.00;100034.19;4962002;28;20275;-78
2023/09/17 04:21:01;;;;;;;5.80;5.30;;;;;;;17.72;100.00;100024.69;4969139;28;20200;-78
2023/09/17 04:23:27;;;;;;;5.70;5.20;;;;;;;17.70;100.00;100039.59;4971593;28;20201;-77
2023/09/17 04:25:53;;;;;;;6.43;5.93;;;;;;;17.70;100.00;100044.00;4969179;28;20220;-78
2023/09/17 04:28:19;;;;;;;5.57;5.23;;;;;;;17.68;100.00;100047.53;4961261;28;20662;-77
2023/09/17 04:30:44;;;;;;;6.30;5.87;;;;;;;17.66;100.00;100046.75;4958593;28;20200;-77
2023/09/17 04:33:10;;;;;;;6.63;6.13;;;;;;;17.67;100.00;100053.69;4961322;28;20239;-78
2023/09/17 04:35:35;;;;;;;7.13;6.53;;;;;;;17.70;100.00;100057.09;4968679;28;20215;-77
2023/09/17 04:38:00;;;;;;;6.30;5.90;;;;;;;17.72;100.00;100065.72;4964788;28;20484;-77
2023/09/17 04:40:28;;;;;;;6.47;6.07;;;;;;;17.72;100.00;100065.72;4971465;28;20193;-77
2023/09/17 04:42:53;;;;;;;6.20;5.80;;;;;;;17.72;100.00;100063.94;4967408;28;20203;-77
2023/09/17 04:45:37;;;;;;;7.00;6.50;;;;;;;17.72;100.00;100069.19;4962952;28;20206;-77
2023/09/17 04:48:02;;;;;;;6.23;5.73;;;;;;;17.73;100.00;100067.44;4968699;28;20890;-76
2023/09/17 04:50:28;;;;;;;6.97;6.43;;;;;;;17.72;100.00;100061.34;4966085;28;20239;-77
2023/09/17 04:52:54;;;;;;;6.53;5.97;;;;;;;17.71;100.00;100056.19;4963528;28;20241;-77
2023/09/17 04:55:20;;;;;;;6.33;5.93;;;;;;;17.70;100.00;100063.16;4963728;28;20272;-77
2023/09/17 04:57:45;;;;;;;6.20;5.80;;;;;;;17.70;100.00;100060.53;4968629;28;20270;-76
2023/09/17 05:00:11;;;;;;;7.23;6.73;;;;;;;17.70;100.00;100067.56;4963673;28;20316;-77
2023/09/17 05:02:40;;;;;;;6.60;6.10;;;;;;;17.71;100.00;100064.03;4966441;28;20199;-77
2023/09/17 05:05:08;;;;;;;6.23;5.77;;;;;;;17.69;100.00;100053.63;4959647;28;20216;-77
2023/09/17 05:07:35;;;;;;;6.10;5.70;;;;;;;17.70;100.00;100057.09;4963247;28;20191;-77
2023/09/17 05:10:00;;;;;;;7.10;6.60;;;;;;;17.70;100.00;100054.47;4955557;28;20564;-78
2023/09/17 05:12:26;;;;;;;6.60;6.10;;;;;;;17.68;100.00;100057.16;4963860;28;20183;-77
2023/09/17 05:14:51;;;;;;;6.83;6.33;;;;;;;17.65;100.00;100060.75;4957957;28;20232;-77
2023/09/17 05:17:17;;;;;;;6.80;6.30;;;;;;;17.64;100.00;100055.59;4961739;28;20193;-78
2023/09/17 05:19:42;;;;;;;7.30;6.80;;;;;;;17.62;100.00;100071.34;4965554;28;20212;-77
2023/09/17 05:22:08;;;;;;;7.30;6.70;;;;;;;17.60;100.00;100062.72;4962729;28;20758;-76
2023/09/17 05:24:33;;;;;;;7.27;6.67;;;;;;;17.58;100.00;100067.16;4968171;28;20289;-76
2023/09/17 05:26:58;;;;;;;7.40;6.83;;;;;;;17.56;100.00;100070.75;4961082;28;20194;-77
2023/09/17 05:29:24;;;;;;;7.23;6.70;;;;;;;17.54;100.00;100073.44;4957889;28;20295;-77
2023/09/17 05:31:49;;;;;;;7.33;6.73;;;;;;;17.53;100.00;100084.81;4967769;28;20182;-77
2023/09/17 05:34:15;;;;;;;7.17;6.63;;;;;;;17.52;100.00;100077.88;4968354;28;20265;-77
2023/09/17 05:36:40;;;;;;;7.07;6.57;;;;;;;17.50;100.00;100083.19;4964880;28;20640;-77
2023/09/17 05:39:06;;;;;;;6.43;6.03;;;;;;;17.52;100.00;100088.34;4966579;28;20209;-78
2023/09/17 05:41:31;;;;;;;6.10;5.70;;;;;;;17.54;100.00;100083.06;4956811;28;20694;-77
2023/09/17 05:43:57;;;;;;;6.27;5.77;;;;;;;17.56;100.00;100084.69;4964084;28;20189;-76
2023/09/17 05:46:22;;;;;;;6.40;6.00;;;;;;;17.58;100.00;100082.88;4966823;28;20188;-78
2023/09/17 05:48:47;;;;;;;9.33;8.60;;;;;;;17.57;100.00;100089.00;4968722;28;20189;-76
2023/09/17 05:51:13;;;;;;;7.80;7.20;;;;;;;17.58;100.00;100088.09;4970278;28;20248;-77
2023/09/17 05:53:38;;;;;;;7.87;7.17;;;;;;;17.62;100.00;100092.28;4969072;28;20223;-76
2023/09/17 05:56:04;;;;;;;7.30;6.70;;;;;;;17.67;100.00;100084.25;4969336;28;20208;-77
2023/09/17 05:58:30;;;;;;;7.27;6.67;;;;;;;17.72;100.00;100079.66;4956131;28;20249;-78
2023/09/17 06:00:55;;;;;;;7.27;6.77;;;;;;;17.75;100.00;100082.16;4964113;28;20210;-78
2023/09/17 06:03:21;;;;;;;6.90;6.43;;;;;;;17.79;100.00;100080.25;4959364;28;20538;-76
2023/09/17 06:05:46;;;;;;;8.13;7.50;;;;;;;17.80;100.00;100082.81;4970313;28;20208;-76
2023/09/17 06:08:13;;;;;;;7.80;7.20;;;;;;;17.83;100.00;100085.31;4965574;28;20315;-77
2023/09/17 06:10:38;;;;;;;8.20;7.60;;;;;;;17.86;100.00;100081.69;4970220;28;21026;-76
2023/09/17 06:13:03;;;;;;;8.70;8.10;;;;;;;17.98;100.00;100083.81;4965395;28;20260;-77
2023/09/17 06:15:29;;;;;;;8.20;7.53;;;;;;;18.11;100.00;100072.81;4967376;28;20340;-77
2023/09/17 06:17:54;;;;;;;8.67;7.97;;;;;;;18.22;100.00;100078.44;4967017;28;20186;-76
2023/09/17 06:20:19;;;;;;;7.70;7.10;;;;;;;18.33;100.00;100083.19;4974393;28;20197;-77
2023/09/17 06:22:47;;;;;;;7.73;7.13;;;;;;;18.46;100.00;100087.88;4981010;28;20186;-77
2023/09/17 06:25:12;;;;;;;8.37;7.50;;;;;;;18.58;100.00;100089.97;4983395;28;20206;-76
2023/09/17 06:27:37;;;;;;;9.03;8.33;;;;;;;18.69;100.00;100089.44;4969246;28;20232;-76
2023/09/17 06:30:03;;;;;;;8.77;8.00;;;;;;;18.82;100.00;100092.34;4975782;28;20216;-76
2023/09/17 06:32:28;;;;;;;7.70;7.10;;;;;;;18.97;100.00;100085.59;4969382;28;20340;-76
2023/09/17 06:34:54;;;;;;;9.13;8.33;;;;;;;19.09;100.00;100087.63;4979491;28;20232;-76
2023/09/17 06:37:19;;;;;;;12.07;11.07;;;;;;;19.23;100.00;100086.09;4978463;28;20297;-76
2023/09/17 06:39:44;;;;;;;9.73;8.87;;;;;;;19.30;100.00;100088.34;4981425;28;20260;-77
2023/09/17 06:42:11;;;;;;;8.30;7.70;;;;;;;19.43;100.00;100096.50;4981267;28;20623;-77
2023/09/17 06:44:36;;;;;;;7.60;7.00;;;;;;;19.56;100.00;100090.63;4975473;28;20887;-76
2023/09/17 06:47:01;;;;;;;7.77;7.10;;;;;;;19.66;100.00;100089.25;4979978;28;20280;-76
2023/09/17 06:49:27;;;;;;;7.20;6.70;;;;;;;19.68;100.00;100087.38;4983401;28;20204;-77
2023/09/17 06:51:54;;;;;;;6.53;6.03;;;;;;;19.80;100.00;100085.94;4983652;28;20567;-76
2023/09/17 06:54:19;;;;;;;6.60;6.10;;;;;;;19.90;100.00;100078.44;4963411;28;20233;-77
2023/09/17 06:56:45;;;;;;;5.77;5.27;;;;;;;20.00;100.00;100084.06;4985189;28;20212;-76
2023/09/17 06:59:10;;;;;;;6.00;5.47;;;;;;;20.11;100.00;100084.38;4971711;28;20221;-76
2023/09/17 07:01:36;;;;;;;5.57;5.17;;;;;;;20.18;100.00;100082.28;4979375;28;20757;-77
2023/09/17 07:04:02;;;;;;;6.10;5.60;;;;;;;20.21;100.00;100074.22;4973896;28;20209;-76
2023/09/17 07:06:27;;;;;;;5.93;5.53;;;;;;;20.37;100.00;100076.91;4967188;28;20193;-76
2023/09/17 07:08:54;;;;;;;5.30;4.90;;;;;;;20.54;100.00;100083.88;4960427;28;20185;-76
2023/09/17 07:11:19;;;;;;;5.67;5.20;;;;;;;20.65;100.00;100086.75;4959792;28;20191;-76
2023/09/17 07:13:45;;;;;;;5.30;4.90;;;;;;;20.78;100.00;100094.03;4968305;28;20186;-76
2023/09/17 07:16:12;;;;;;;5.07;4.67;;;;;;;20.94;100.00;100096.66;4968574;28;20283;-76
2023/09/17 07:18:37;;;;;;;5.40;5.00;;;;;;;21.14;100.00;100098.16;4968890;28;20710;-74
2023/09/17 07:21:03;;;;;;;4.30;4.00;;;;;;;21.39;100.00;100100.25;4967195;28;20213;-76
2023/09/17 07:23:29;;;;;;;5.73;5.00;;;;;;;21.69;100.00;100104.72;4965492;28;20236;-76
2023/09/17 07:25:55;;;;;;;4.47;4.10;;;;;;;21.96;100.00;100105.81;4961046;28;20214;-77
2023/09/17 07:28:20;;;;;;;4.33;3.97;;;;;;;22.16;100.00;100108.06;4957379;28;20185;-77
2023/09/17 07:30:45;;;;;;;4.77;4.37;;;;;;;22.42;100.00;100113.59;4968807;28;20202;-76
2023/09/17 07:33:12;;;;;;;4.30;3.90;;;;;;;22.64;100.00;100106.97;4970563;28;20182;-77
2023/09/17 07:35:39;;;;;;;4.00;3.70;;;;;;;22.59;100.00;100103.81;4969924;28;20297;-77
2023/09/17 07:38:05;;;;;;;4.27;3.90;;;;;;;22.89;100.00;100110.72;4970396;28;20657;-78
2023/09/17 07:40:30;;;;;;;4.00;3.70;;;;;;;23.22;100.00;100106.88;4982240;28;20209;-77
2023/09/17 07:42:55;;;;;;;4.10;3.80;;;;;;;23.41;100.00;100119.75;4976104;28;20242;-77
2023/09/17 07:45:20;;;;;;;3.97;3.70;;;;;;;23.65;100.00;100112.00;4960934;28;20306;-77
2023/09/17 07:47:46;;;;;;;3.90;3.60;;;;;;;23.80;100.00;100117.19;4971786;28;20190;-77
2023/09/17 07:50:12;;;;;;;4.57;4.13;;;;;;;23.95;100.00;100117.94;4968527;28;20185;-77
2023/09/17 07:52:40;;;;;;;4.27;3.90;;;;;;;23.98;100.00;100115.13;4964622;28;20192;-77
2023/09/17 07:55:06;;;;;;;4.70;4.20;;;;;;;23.88;100.00;100117.50;4964519;28;20297;-77
2023/09/17 07:57:31;;;;;;;4.00;3.70;;;;;;;23.75;100.00;100114.84;4960475;28;20281;-77
2023/09/17 07:59:57;;;;;;;4.57;3.90;;;;;;;23.82;100.00;100110.84;4960525;28;20210;-77
2023/09/17 08:02:22;;;;;;;3.83;3.53;;;;;;;23.90;100.00;100116.44;4963091;28;20228;-77
2023/09/17 08:04:47;;;;;;;4.23;3.93;;;;;;;23.98;100.00;100115.94;4964405;28;20209;-77
2023/09/17 08:07:13;;;;;;;5.83;5.13;;;;;;;23.87;100.00;100121.09;4960500;28;20238;-77
2023/09/17 08:09:38;;;;;;;4.60;4.10;;;;;;;24.05;100.00;100114.59;4963301;28;20288;-76
2023/09/17 08:12:05;;;;;;;5.13;4.63;;;;;;;24.03;100.00;100118.31;4959329;28;20232;-77
2023/09/17 08:14:32;;;;;;;4.90;4.50;;;;;;;24.01;100.00;100115.75;4962920;28;20892;-76
2023/09/17 08:16:58;;;;;;;4.63;4.23;;;;;;;23.94;100.00;100122.38;4962077;28;20201;-76
2023/09/17 08:19:23;;;;;;;4.77;4.47;;;;;;;23.89;100.00;100117.41;4962500;28;20853;-76
2023/09/17 08:21:48;;;;;;;4.67;4.37;;;;;;;23.90;100.00;100105.88;4966028;28;20193;-77
2023/09/17 08:24:15;;;;;;;6.23;5.07;;;;;;;23.72;100.00;100112.41;4959909;28;20306;-76
2023/09/17 08:26:40;;;;;;;4.53;4.23;;;;;;;23.60;100.00;100114.09;4956223;28;20357;-77
2023/09/17 08:29:06;;;;;;;5.30;4.80;;;;;;;23.42;100.00;100109.06;4957576;28;20730;-77
2023/09/17 08:31:32;;;;;;;5.57;5.17;;;;;;;23.30;100.00;100104.59;4961663;28;20216;-76
2023/09/17 08:33:58;;;;;;;5.60;4.77;;;;;;;23.26;100.00;100103.97;4962342;28;20194;-77
2023/09/17 08:36:23;;;;;;;5.17;4.67;;;;;;;23.19;100.00;100104.44;4959090;28;20240;-77
2023/09/17 08:38:49;;;;;;;5.40;4.90;;;;;;;23.30;100.00;100101.94;4965894;28;20725;-76
2023/09/17 08:41:16;;;;;;;4.97;4.53;;;;;;;23.49;100.00;100119.25;4959490;28;20316;-76
2023/09/17 08:43:42;;;;;;;4.67;4.27;;;;;;;23.65;100.00;100124.34;4960830;28;20194;-76
2023/09/17 08:46:07;;;;;;;5.20;4.70;;;;;;;23.44;100.00;100114.25;4960208;28;20194;-76
2023/09/17 08:48:33;;;;;;;5.00;4.60;;;;;;;23.31;100.00;100113.34;4955814;28;20313;-76
2023/09/17 08:50:59;;;;;;;4.77;4.47;;;;;;;23.54;100.00;100109.19;4977345;28;20225;-77
2023/09/17 08:53:41;;;;;;;4.57;4.20;;;;;;;23.75;100.00;100110.41;4957521;28;20191;-76
2023/09/17 08:56:12;;;;;;;5.57;4.50;;;;;;;23.70;100.00;100109.88;4958097;28;20233;-77
2023/09/17 08:58:43;;;;;;;4.60;4.20;;;;;;;23.92;100.00;100103.16;4965945;28;20245;-76
2023/09/17 09:01:10;;;;;;;4.90;4.50;;;;;;;24.10;100.00;100108.16;4964000;28;20202;-77
2023/09/17 09:03:37;;;;;;;4.67;4.27;;;;;;;24.18;100.00;100103.19;4962827;28;20634;-76
2023/09/17 09:06:03;;;;;;;4.50;4.13;;;;;;;24.33;100.00;100104.75;4954162;28;20332;-75
2023/09/17 09:08:30;;;;;;;4.30;4.00;;;;;;;24.39;100.00;100100.00;4960880;28;20194;-76
2023/09/17 09:10:56;;;;;;;4.87;4.40;;;;;;;24.45;100.00;100102.19;4962905;28;20974;-76
2023/09/17 09:13:21;;;;;;;4.77;4.33;;;;;;;24.35;100.00;100108.13;4962841;28;20197;-77
2023/09/17 09:15:47;;;;;;;5.00;4.60;;;;;;;24.35;100.00;100112.59;4959574;28;20977;-76
2023/09/17 09:18:13;;;;;;;4.60;4.20;;;;;;;24.44;100.00;100098.72;4963750;28;20198;-77
2023/09/17 09:20:40;;;;;;;5.00;4.60;;;;;;;24.23;100.00;100102.84;4961987;28;20194;-76
2023/09/17 09:23:06;;;;;;;4.93;4.43;;;;;;;24.06;100.00;100099.56;4962087;28;20199;-76
2023/09/17 09:25:31;;;;;;;4.70;4.30;;;;;;;24.27;100.00;100104.34;4960361;28;20217;-77
2023/09/17 09:28:03;;;;;;;5.27;3.93;;;;;;;24.46;100.00;100095.94;4959719;28;20221;-78
2023/09/17 09:30:29;;;;;;;5.07;3.90;;;;;;;24.61;100.00;100092.22;4957863;28;20248;-77
2023/09/17 09:32:56;;;;;;;4.93;4.43;;;;;;;24.64;100.00;100096.47;4963691;28;20198;-77
2023/09/17 09:35:22;;;;;;;4.23;3.87;;;;;;;24.78;100.00;100101.66;4969806;28;20209;-77
2023/09/17 09:37:48;;;;;;;4.53;4.23;;;;;;;24.99;100.00;100103.69;4965441;28;20208;-77
2023/09/17 09:40:14;;;;;;;4.47;4.07;;;;;;;25.23;97.75;100103.69;4963740;28;20249;-76
2023/09/17 09:42:42;;;;;;;4.60;4.10;;;;;;;25.26;97.81;100100.81;4960474;28;20198;-77
2023/09/17 09:45:13;;;;;;;4.17;3.87;;;;;;;25.40;97.84;100091.00;4962264;28;20219;-76
2023/09/17 09:47:38;;;;;;;5.37;4.30;;;;;;;25.45;97.34;100094.19;4954425;28;20542;-77
2023/09/17 09:50:04;;;;;;;4.30;3.87;;;;;;;25.68;96.60;100088.94;4958564;28;20193;-77
2023/09/17 09:52:29;;;;;;;4.07;3.77;;;;;;;25.84;96.42;100088.66;4963084;28;20852;-79
2023/09/17 09:54:54;;;;;;;4.30;3.77;;;;;;;25.97;95.78;100080.56;4961181;28;20238;-77
2023/09/17 09:57:20;;;;;;;3.80;3.50;;;;;;;26.06;95.20;100077.22;4962030;28;20712;-77
2023/09/17 09:59:47;;;;;;;4.43;4.10;;;;;;;25.96;95.88;100084.19;4959979;28;20214;-77
2023/09/17 10:02:15;;;;;;;4.33;3.93;;;;;;;25.99;94.40;100086.59;4958286;28;20233;-76
2023/09/17 10:04:42;;;;;;;3.97;3.60;;;;;;;26.06;92.98;100077.22;4960334;28;20738;-76
2023/09/17 10:07:08;;;;;;;4.20;3.90;;;;;;;26.18;93.21;100075.44;4958226;28;20298;-76
2023/09/17 10:09:34;;;;;;;4.00;3.70;;;;;;;26.35;92.89;100066.16;4961062;28;20713;-76
2023/09/17 10:12:00;;;;;;;4.17;3.77;;;;;;;26.41;91.14;100057.69;4958031;28;20187;-75
2023/09/17 10:14:26;;;;;;;3.80;3.50;;;;;;;26.53;91.25;100057.72;4956836;28;20319;-76
2023/09/17 10:16:54;;;;;;;4.57;4.10;;;;;;;26.72;91.18;100049.94;4959746;28;20190;-76
2023/09/17 10:19:21;;;;;;;4.63;4.10;;;;;;;26.88;88.80;100044.28;4957670;28;20217;-76
2023/09/17 10:21:48;;;;;;;6.10;3.70;;;;;;;27.14;87.36;100043.94;4964426;28;20187;-79
2023/09/17 10:24:18;;;;;;;4.43;3.67;;;;;;;27.34;85.43;100046.75;4953087;28;20257;-78
2023/09/17 10:26:45;;;;;;;6.07;3.67;;;;;;;27.35;86.21;100043.13;4957966;28;20182;-77
2023/09/17 10:29:12;;;;;;;4.90;3.67;;;;;;;27.29;86.22;100047.13;4959630;28;20709;-76
2023/09/17 10:31:39;;;;;;;3.70;3.40;;;;;;;27.48;86.42;100043.78;4956857;28;20247;-78
2023/09/17 10:34:05;;;;;;;4.23;3.60;;;;;;;27.61;87.27;100040.09;4962468;28;20209;-76
2023/09/17 10:36:32;;;;;;;7.10;3.57;;;;;;;27.77;85.35;100035.16;4962742;28;20270;-78
2023/09/17 10:38:59;;;;;;;4.40;4.00;;;;;;;27.49;86.79;100031.34;4964617;28;20214;-78
2023/09/17 10:41:27;;;;;;;3.70;3.40;;;;;;;27.69;86.73;100022.53;4968168;28;20666;-74
2023/09/17 10:43:55;;;;;;;4.97;3.83;;;;;;;27.66;85.10;100021.94;4965225;28;20192;-76
2023/09/17 10:46:22;;;;;;;5.53;3.63;;;;;;;27.66;84.79;100016.63;4967161;28;20182;-77
2023/09/17 10:48:50;;;;;;;6.40;3.63;;;;;;;27.51;85.67;100010.78;4965725;28;20646;-77
2023/09/17 10:51:17;;;;;;;4.90;3.27;;;;;;;27.48;87.91;100013.72;4965161;28;20205;-76
2023/09/17 10:53:43;;;;;;;5.07;3.60;;;;;;;27.15;88.68;100012.91;4965702;28;20193;-77
2023/09/17 10:56:10;;;;;;;8.23;4.33;;;;;;;27.03;87.80;100015.59;4964441;28;20989;-77
2023/09/17 10:58:45;;;;;;;4.63;3.20;;;;;;;27.53;86.74;100019.47;4960580;28;20202;-78
2023/09/17 11:01:14;;;;;;;4.90;2.90;;;;;;;28.01;83.19;100011.91;4961668;28;20368;-77
2023/09/17 11:03:45;;;;;;;6.50;3.57;;;;;;;28.19;82.48;100012.13;4962690;28;20201;-77
2023/09/17 11:06:16;;;;;;;4.40;2.97;;;;;;;28.41;82.44;100013.72;4959673;28;20684;-77
2023/09/17 11:08:46;;;;;;;4.67;3.10;;;;;;;28.64;81.77;100009.00;4963630;28;20277;-76
2023/09/17 11:11:17;;;;;;;5.68;3.10;;;;;;;28.74;80.42;100017.03;4960654;28;20197;-77
2023/09/17 11:13:43;;;;;;;6.23;2.90;;;;;;;28.84;79.38;100007.22;4964766;28;20228;-79
2023/09/17 11:16:09;;;;;;;4.75;3.03;;;;;;;28.85;79.98;100008.91;4964093;28;20258;-78